Time;durP1;ratioP1;P1;durP2;ratioP2;P2;SDS_P1;SDS_P2;PMS_P1;PMS_P2;Temp;Humidity;BMP_temperature;BMP_pressure;BME280_temperature;BME280_humidity;BME280_pressure;Samples;Min_cycle;Max_cycle;Signal;HPM_P1;HPM_P2
2022/10/03 00:01:35;;;;;;;;;;;;;;;;;;5011001;28;19967;-59
2022/10/03 00:04:01;;;;;;;;;;;;;;;;;;5004362;28;19976;-58
2022/10/03 00:06:27;;;;;;;;;;;;;;;;;;5005734;28;20004;-59
2022/10/03 00:08:53;;;;;;;;;;;;;;;;;;5010170;28;19964;-59
2022/10/03 00:11:19;;;;;;;;;;;;;;;;;;5003597;28;19929;-58
2022/10/03 00:13:45;;;;;;;;;;;;;;;;;;5009583;28;20260;-58
2022/10/03 00:16:11;;;;;;;;;;;;;;;;;;5009218;28;19921;-59
2022/10/03 00:18:37;;;;;;;;;;;;;;;;;;5005139;28;19921;-59
2022/10/03 00:21:03;;;;;;;;;;;;;;;;;;5002086;28;20372;-59
2022/10/03 00:23:29;;;;;;;;;;;;;;;;;;5009717;28;20055;-59
2022/10/03 00:25:55;;;;;;;;;;;;;;;;;;5010093;28;20012;-59
2022/10/03 00:28:21;;;;;;;;;;;;;;;;;;5003147;28;19928;-59
2022/10/03 00:30:47;;;;;;;;;;;;;;;;;;5009863;28;19921;-58
2022/10/03 00:33:13;;;;;;;;;;;;;;;;;;5003986;28;19929;-59
2022/10/03 00:35:40;;;;;;;;;;;;;;;;;;5003240;28;19928;-59
2022/10/03 00:38:06;;;;;;;;;;;;;;;;;;5009155;28;19921;-61
2022/10/03 00:40:32;;;;;;;;;;;;;;;;;;4991806;28;19972;-59
2022/10/03 00:42:59;;;;;;;;;;;;;;;;;;5009332;28;20034;-59
2022/10/03 00:45:25;;;;;;;;;;;;;;;;;;5008877;28;19927;-59
2022/10/03 00:47:51;;;;;;;;;;;;;;;;;;5008163;28;20650;-58
2022/10/03 00:50:17;;;;;;;;;;;;;;;;;;5005463;28;19925;-59
2022/10/03 00:52:43;;;;;;;;;;;;;;;;;;5009077;28;19984;-59
2022/10/03 00:55:09;;;;;;;;;;;;;;;;;;5008320;28;20453;-59
2022/10/03 00:57:35;;;;;;;;;;;;;;;;;;5009132;28;19921;-59
2022/10/03 01:00:01;;;;;;;;;;;;;;;;;;5009081;28;19928;-59
2022/10/03 01:02:27;;;;;;;;;;;;;;;;;;5004795;28;19957;-59
2022/10/03 01:04:53;;;;;;;;;;;;;;;;;;5005297;28;19921;-59
2022/10/03 01:07:19;;;;;;;;;;;;;;;;;;5005147;28;20394;-59
2022/10/03 01:09:45;;;;;;;;;;;;;;;;;;5008732;28;19928;-59
2022/10/03 01:12:11;;;;;;;;;;;;;;;;;;5008586;28;19937;-59
2022/10/03 01:14:38;;;;;;;;;;;;;;;;;;5008634;28;20398;-59
2022/10/03 01:17:04;;;;;;;;;;;;;;;;;;4991266;28;19972;-58
2022/10/03 01:19:30;;;;;;;;;;;;;;;;;;5002401;28;19965;-59
2022/10/03 01:21:56;;;;;;;;;;;;;;;;;;5008355;28;20024;-59
2022/10/03 01:24:21;;;;;;;;;;;;;;;;;;5007119;28;19978;-59
2022/10/03 01:26:48;;;;;;;;;;;;;;;;;;5007800;28;19991;-59
2022/10/03 01:31:58;;;;;;;;;;;;;;;;;;5007973;28;19936;-59
2022/10/03 01:34:24;;;;;;;;;;;;;;;;;;5007246;28;19917;-58
2022/10/03 01:36:50;;;;;;;;;;;;;;;;;;5007508;28;20260;-59
2022/10/03 01:39:16;;;;;;;;;;;;;;;;;;5007970;28;20355;-59
2022/10/03 01:41:42;;;;;;;;;;;;;;;;;;5008059;28;19968;-59
2022/10/03 01:44:11;;;;;;;;;;;;;;;;;;5007349;28;19969;-59
2022/10/03 01:46:37;;;;;;;;;;;;;;;;;;5007699;28;20347;-59
2022/10/03 01:49:03;;;;;;;;;;;;;;;;;;5007492;28;19921;-59
2022/10/03 01:51:29;;;;;;;;;;;;;;;;;;5007719;28;19929;-59
2022/10/03 01:53:55;;;;;;;;;;;;;;;;;;5007051;28;19921;-59
2022/10/03 01:56:21;;;;;;;;;;;;;;;;;;5007458;28;20298;-58
2022/10/03 01:58:47;;;;;;;;;;;;;;;;;;5007863;28;19921;-58
2022/10/03 02:01:13;;;;;;;;;;;;;;;;;;5007451;28;19972;-59
2022/10/03 02:03:39;;;;;;;;;;;;;;;;;;5006980;28;19968;-59
2022/10/03 02:06:05;;;;;;;;;;;;;;;;;;5005518;28;19932;-59
2022/10/03 02:08:32;;;;;;;;;;;;;;;;;;5008005;28;20391;-59
2022/10/03 02:10:58;;;;;;;;;;;;;;;;;;5007594;28;19999;-59
2022/10/03 02:13:24;;;;;;;;;;;;;;;;;;5007290;28;19925;-59
2022/10/03 02:15:53;;;;;;;;;;;;;;;;;;5006893;28;19925;-59
2022/10/03 02:18:19;;;;;;;;;;;;;;;;;;5006195;28;19923;-59
2022/10/03 02:20:45;;;;;;;;;;;;;;;;;;5007926;28;19921;-59
2022/10/03 02:23:11;;;;;;;;;;;;;;;;;;5006951;28;19922;-59
2022/10/03 02:25:39;;;;;;;;;;;;;;;;;;5007167;28;19921;-60
2022/10/03 02:28:05;;;;;;;;;;;;;;;;;;5007691;28;20336;-59
2022/10/03 02:30:31;;;;;;;;;;;;;;;;;;5008034;28;20406;-59
2022/10/03 02:32:57;;;;;;;;;;;;;;;;;;5006397;28;19921;-59
2022/10/03 02:35:23;;;;;;;;;;;;;;;;;;5006985;28;19917;-59
2022/10/03 02:37:49;;;;;;;;;;;;;;;;;;5008680;28;19932;-59
2022/10/03 02:40:16;;;;;;;;;;;;;;;;;;5011039;28;20052;-59
2022/10/03 02:42:42;;;;;;;;;;;;;;;;;;5011125;28;20394;-59
2022/10/03 02:45:08;;;;;;;;;;;;;;;;;;5011223;28;19922;-60
2022/10/03 02:47:34;;;;;;;;;;;;;;;;;;5010991;28;19925;-59
2022/10/03 02:50:00;;;;;;;;;;;;;;;;;;5011086;28;19921;-59
2022/10/03 02:52:26;;;;;;;;;;;;;;;;;;5007510;28;19925;-59
2022/10/03 02:54:53;;;;;;;;;;;;;;;;;;5010928;28;19929;-58
2022/10/03 02:57:19;;;;;;;;;;;;;;;;;;5007733;28;19933;-59
2022/10/03 02:59:45;;;;;;;;;;;;;;;;;;5010643;28;20029;-59
2022/10/03 03:02:11;;;;;;;;;;;;;;;;;;4992895;28;20012;-59
2022/10/03 03:04:37;;;;;;;;;;;;;;;;;;5010763;28;19951;-59
2022/10/03 03:07:04;;;;;;;;;;;;;;;;;;5010842;28;19928;-59
2022/10/03 03:09:30;;;;;;;;;;;;;;;;;;5010513;28;20418;-59
2022/10/03 03:11:58;;;;;;;;;;;;;;;;;;4993143;28;19925;-58
2022/10/03 03:14:24;;;;;;;;;;;;;;;;;;5010875;28;19928;-58
2022/10/03 03:16:50;;;;;;;;;;;;;;;;;;5010472;28;19921;-59
2022/10/03 03:19:16;;;;;;;;;;;;;;;;;;5009489;28;19929;-59
2022/10/03 03:21:42;;;;;;;;;;;;;;;;;;5011005;28;19929;-59
2022/10/03 03:24:08;;;;;;;;;;;;;;;;;;5010092;28;19971;-60
2022/10/03 03:26:34;;;;;;;;;;;;;;;;;;5010634;28;20295;-59
2022/10/03 03:29:00;;;;;;;;;;;;;;;;;;5010472;28;19926;-58
2022/10/03 03:31:28;;;;;;;;;;;;;;;;;;5009928;28;19925;-59
2022/10/03 03:33:54;;;;;;;;;;;;;;;;;;5009589;28;19921;-59
2022/10/03 03:36:20;;;;;;;;;;;;;;;;;;5009795;28;19932;-59
2022/10/03 03:38:46;;;;;;;;;;;;;;;;;;5010263;28;20360;-59
2022/10/03 03:41:13;;;;;;;;;;;;;;;;;;5010240;28;21802;-59
2022/10/03 03:43:39;;;;;;;;;;;;;;;;;;5010113;28;19925;-59
2022/10/03 03:46:05;;;;;;;;;;;;;;;;;;4992958;28;20005;-58
2022/10/03 03:48:32;;;;;;;;;;;;;;;;;;5009582;28;19965;-59
2022/10/03 03:50:58;;;;;;;;;;;;;;;;;;5010118;28;19921;-59
2022/10/03 03:53:24;;;;;;;;;;;;;;;;;;5009826;28;20367;-59
2022/10/03 03:55:53;;;;;;;;;;;;;;;;;;5009957;28;19932;-59
2022/10/03 03:58:19;;;;;;;;;;;;;;;;;;5008566;28;20003;-59
2022/10/03 04:00:45;;;;;;;;;;;;;;;;;;5009632;28;19976;-59
2022/10/03 04:03:11;;;;;;;;;;;;;;;;;;5009133;28;20462;-59
2022/10/03 04:05:37;;;;;;;;;;;;;;;;;;5009650;28;20011;-60
2022/10/03 04:08:06;;;;;;;;;;;;;;;;;;5010226;28;19944;-59
2022/10/03 04:10:32;;;;;;;;;;;;;;;;;;5009813;28;20047;-59
2022/10/03 04:12:58;;;;;;;;;;;;;;;;;;5009275;28;20004;-59
2022/10/03 04:15:24;;;;;;;;;;;;;;;;;;4991995;28;19976;-59
2022/10/03 04:20:35;;;;;;;;;;;;;;;;;;5009704;28;20008;-59
2022/10/03 04:23:01;;;;;;;;;;;;;;;;;;5009439;28;20004;-59
2022/10/03 04:25:27;;;;;;;;;;;;;;;;;;5009466;28;19921;-59
2022/10/03 04:27:53;;;;;;;;;;;;;;;;;;5009637;28;20767;-59
2022/10/03 04:30:19;;;;;;;;;;;;;;;;;;5009024;28;19922;-59
2022/10/03 04:32:45;;;;;;;;;;;;;;;;;;5008440;28;20386;-59
2022/10/03 04:35:11;;;;;;;;;;;;;;;;;;5009073;28;19929;-59
2022/10/03 04:37:37;;;;;;;;;;;;;;;;;;5009233;28;19931;-60
2022/10/03 04:40:03;;;;;;;;;;;;;;;;;;5007788;28;19921;-59
2022/10/03 04:42:29;;;;;;;;;;;;;;;;;;5009115;28;20016;-59
2022/10/03 04:44:55;;;;;;;;;;;;;;;;;;5009461;28;20392;-59
2022/10/03 04:47:21;;;;;;;;;;;;;;;;;;5007385;28;20222;-59
2022/10/03 04:49:47;;;;;;;;;;;;;;;;;;5008785;28;20382;-59
2022/10/03 04:52:13;;;;;;;;;;;;;;;;;;5008995;28;19921;-59
2022/10/03 04:54:42;;;;;;;;;;;;;;;;;;5008535;28;19928;-59
2022/10/03 04:57:08;;;;;;;;;;;;;;;;;;5008579;28;19921;-59
2022/10/03 04:59:34;;;;;;;;;;;;;;;;;;5009225;28;19925;-59
2022/10/03 05:02:02;;;;;;;;;;;;;;;;;;5007450;28;19959;-59
2022/10/03 05:04:28;;;;;;;;;;;;;;;;;;5008532;28;19924;-58
2022/10/03 05:06:54;;;;;;;;;;;;;;;;;;5008478;28;19921;-59
2022/10/03 05:09:20;;;;;;;;;;;;;;;;;;5008316;28;19921;-59
2022/10/03 05:11:46;;;;;;;;;;;;;;;;;;5008637;28;19926;-59
2022/10/03 05:14:12;;;;;;;;;;;;;;;;;;5007972;28;19922;-59
2022/10/03 05:16:40;;;;;;;;;;;;;;;;;;5008120;28;19972;-60
2022/10/03 05:19:07;;;;;;;;;;;;;;;;;;5005608;28;20303;-60
2022/10/03 05:21:33;;;;;;;;;;;;;;;;;;5008175;28;20322;-59
2022/10/03 05:24:02;;;;;;;;;;;;;;;;;;5008211;28;19922;-59
2022/10/03 05:26:28;;;;;;;;;;;;;;;;;;5005992;28;20001;-59
2022/10/03 05:28:55;;;;;;;;;;;;;;;;;;5008872;28;19922;-58
2022/10/03 05:31:21;;;;;;;;;;;;;;;;;;5007471;28;20015;-59
2022/10/03 05:33:47;;;;;;;;;;;;;;;;;;5008508;28;19917;-59
2022/10/03 05:36:14;;;;;;;;;;;;;;;;;;5005489;28;19929;-60
2022/10/03 05:38:40;;;;;;;;;;;;;;;;;;5005772;28;19930;-59
2022/10/03 05:41:06;;;;;;;;;;;;;;;;;;5006326;28;19927;-61
2022/10/03 05:43:35;;;;;;;;;;;;;;;;;;5010223;28;20287;-59
2022/10/03 05:46:01;;;;;;;;;;;;;;;;;;5008655;28;19928;-59
2022/10/03 05:48:27;;;;;;;;;;;;;;;;;;5007075;28;20343;-58
2022/10/03 05:50:56;;;;;;;;;;;;;;;;;;5005185;28;20433;-59
2022/10/03 05:53:23;;;;;;;;;;;;;;;;;;5007977;28;19928;-58
2022/10/03 05:55:49;;;;;;;;;;;;;;;;;;5008093;28;19928;-59
2022/10/03 05:58:15;;;;;;;;;;;;;;;;;;5007497;28;19925;-59
2022/10/03 06:00:41;;;;;;;;;;;;;;;;;;5007979;28;19960;-59
2022/10/03 06:03:07;;;;;;;;;;;;;;;;;;5006405;28;19922;-58
2022/10/03 06:05:33;;;;;;;;;;;;;;;;;;5007827;28;20438;-58
2022/10/03 06:07:59;;;;;;;;;;;;;;;;;;5008136;28;19921;-59
2022/10/03 06:10:25;;;;;;;;;;;;;;;;;;5007631;28;19928;-58
2022/10/03 06:12:51;;;;;;;;;;;;;;;;;;5007888;28;19928;-59
2022/10/03 06:15:18;;;;;;;;;;;;;;;;;;5007616;28;19929;-58
2022/10/03 06:17:44;;;;;;;;;;;;;;;;;;5007181;28;19964;-58
2022/10/03 06:20:10;;;;;;;;;;;;;;;;;;5007310;28;19987;-59
2022/10/03 06:22:36;;;;;;;;;;;;;;;;;;5008114;28;20379;-59
2022/10/03 06:25:02;;;;;;;;;;;;;;;;;;4990462;28;19964;-58
2022/10/03 06:27:28;;;;;;;;;;;;;;;;;;4989817;28;19917;-59
2022/10/03 06:29:54;;;;;;;;;;;;;;;;;;5008164;28;20435;-58
2022/10/03 06:32:20;;;;;;;;;;;;;;;;;;5006818;28;19925;-59
2022/10/03 06:34:47;;;;;;;;;;;;;;;;;;5007447;28;19925;-58
2022/10/03 06:37:13;;;;;;;;;;;;;;;;;;5007489;28;19982;-58
2022/10/03 06:39:39;;;;;;;;;;;;;;;;;;5003829;28;19932;-58
2022/10/03 06:42:05;;;;;;;;;;;;;;;;;;5008118;28;19929;-57
2022/10/03 06:44:31;;;;;;;;;;;;;;;;;;5008074;28;19929;-58
2022/10/03 06:46:57;;;;;;;;;;;;;;;;;;5007057;28;19921;-58
2022/10/03 06:49:23;;;;;;;;;;;;;;;;;;5007134;28;20367;-58
2022/10/03 06:51:50;;;;;;;;;;;;;;;;;;5007752;28;20013;-58
2022/10/03 06:54:16;;;;;;;;;;;;;;;;;;4986329;28;19922;-59
2022/10/03 06:56:42;;;;;;;;;;;;;;;;;;4987680;28;19926;-57
2022/10/03 06:59:08;;;;;;;;;;;;;;;;;;4987801;28;19922;-58
2022/10/03 07:01:34;;;;;;;;;;;;;;;;;;4987655;28;20557;-58
2022/10/03 07:04:00;;;;;;;;;;;;;;;;;;4988032;28;20410;-59
2022/10/03 07:06:26;;;;;;;;;;;;;;;;;;4984219;28;19925;-59
2022/10/03 07:08:53;;;;;;;;;;;;;;;;;;4988067;28;19925;-58
2022/10/03 07:11:19;;;;;;;;;;;;;;;;;;4987686;28;20000;-58
2022/10/03 07:13:45;;;;;;;;;;;;;;;;;;4988000;28;19997;-58
2022/10/03 07:16:11;;;;;;;;;;;;;;;;;;4986581;28;19934;-58
2022/10/03 07:18:37;;;;;;;;;;;;;;;;;;4987049;28;19929;-59
2022/10/03 07:21:03;;;;;;;;;;;;;;;;;;4988435;28;20395;-58
2022/10/03 07:23:29;;;;;;;;;;;;;;;;;;4988234;28;20371;-58
2022/10/03 07:25:55;;;;;;;;;;;;;;;;;;4991454;28;19937;-58
2022/10/03 07:28:21;;;;;;;;;;;;;;;;;;4991071;28;19922;-58
2022/10/03 07:30:47;;;;;;;;;;;;;;;;;;4991515;28;20240;-59
2022/10/03 07:33:13;;;;;;;;;;;;;;;;;;4990407;28;19928;-57
2022/10/03 07:41:08;;;;;;;;;;;;;;;;;;4990717;28;20024;-59
2022/10/03 07:43:34;;;;;;;;;;;;;;;;;;4991405;28;20025;-58
2022/10/03 07:46:00;;;;;;;;;;;;;;;;;;4990916;28;20012;-58
2022/10/03 07:48:26;;;;;;;;;;;;;;;;;;4989728;28;20379;-59
2022/10/03 07:50:52;;;;;;;;;;;;;;;;;;4990780;28;20009;-58
2022/10/03 07:53:19;;;;;;;;;;;;;;;;;;4991483;28;20375;-58
2022/10/03 07:55:45;;;;;;;;;;;;;;;;;;5009993;28;19991;-58
2022/10/03 07:58:11;;;;;;;;;;;;;;;;;;5010277;28;20363;-57
2022/10/03 08:00:37;;;;;;;;;;;;;;;;;;5010478;28;19922;-59
2022/10/03 08:03:03;;;;;;;;;;;;;;;;;;5009562;28;20391;-58
2022/10/03 08:05:29;;;;;;;;;;;;;;;;;;5010160;28;19925;-58
2022/10/03 08:07:55;;;;;;;;;;;;;;;;;;5006504;28;19921;-59
2022/10/03 08:10:21;;;;;;;;;;;;;;;;;;5009919;28;20318;-58
2022/10/03 08:12:48;;;;;;;;;;;;;;;;;;5010349;28;19944;-56
2022/10/03 08:15:14;;;;;;;;;;;;;;;;;;5010082;28;20008;-58
2022/10/03 08:17:40;;;;;;;;;;;;;;;;;;5009148;28;20413;-58
2022/10/03 08:20:06;;;;;;;;;;;;;;;;;;5009776;28;20291;-59
2022/10/03 08:22:32;;;;;;;;;;;;;;;;;;5009840;28;19928;-58
2022/10/03 08:24:58;;;;;;;;;;;;;;;;;;5010132;28;19921;-59
2022/10/03 08:27:24;;;;;;;;;;;;;;;;;;5009772;28;19922;-58
2022/10/03 08:29:50;;;;;;;;;;;;;;;;;;5009418;28;20287;-58
2022/10/03 08:32:16;;;;;;;;;;;;;;;;;;5008774;28;19921;-58
2022/10/03 08:34:42;;;;;;;;;;;;;;;;;;5009095;28;19921;-58
2022/10/03 08:37:08;;;;;;;;;;;;;;;;;;5008807;28;19922;-59
2022/10/03 08:39:34;;;;;;;;;;;;;;;;;;5009958;28;19925;-58
2022/10/03 08:42:01;;;;;;;;;;;;;;;;;;5009613;28;20005;-59
2022/10/03 08:44:27;;;;;;;;;;;;;;;;;;5009510;28;19921;-59
2022/10/03 08:46:54;;;;;;;;;;;;;;;;;;5008651;28;19932;-56
2022/10/03 08:49:21;;;;;;;;;;;;;;;;;;5009286;28;19928;-59
2022/10/03 08:51:47;;;;;;;;;;;;;;;;;;5009569;28;20024;-58
2022/10/03 08:54:13;;;;;;;;;;;;;;;;;;5008492;28;19984;-58
2022/10/03 08:56:39;;;;;;;;;;;;;;;;;;5009491;28;19925;-59
2022/10/03 08:59:06;;;;;;;;;;;;;;;;;;5008691;28;19921;-59
2022/10/03 09:01:32;;;;;;;;;;;;;;;;;;5009193;28;19921;-58
2022/10/03 09:03:58;;;;;;;;;;;;;;;;;;5009218;28;20411;-58
2022/10/03 09:06:24;;;;;;;;;;;;;;;;;;4991443;28;19936;-59
2022/10/03 09:08:50;;;;;;;;;;;;;;;;;;4991360;28;20004;-58
2022/10/03 09:11:17;;;;;;;;;;;;;;;;;;5009109;28;20016;-58
2022/10/03 09:13:43;;;;;;;;;;;;;;;;;;5008876;28;19928;-59
2022/10/03 09:16:09;;;;;;;;;;;;;;;;;;5008408;28;19921;-59
2022/10/03 09:18:35;;;;;;;;;;;;;;;;;;5009268;28;20382;-59
2022/10/03 09:21:05;;;;;;;;;;;;;;;;;;5009258;28;19925;-58
2022/10/03 09:23:32;;;;;;;;;;;;;;;;;;5009160;28;20395;-58
2022/10/03 09:25:58;;;;;;;;;;;;;;;;;;5008817;28;19944;-57
2022/10/03 09:28:24;;;;;;;;;;;;;;;;;;5008668;28;19921;-58
2022/10/03 09:30:50;;;;;;;;;;;;;;;;;;5008895;28;19936;-59
2022/10/03 09:33:16;;;;;;;;;;;;;;;;;;5004043;28;19928;-59
2022/10/03 09:35:42;;;;;;;;;;;;;;;;;;5008267;28;19921;-59
2022/10/03 09:38:08;;;;;;;;;;;;;;;;;;5008174;28;19921;-59
2022/10/03 09:40:34;;;;;;;;;;;;;;;;;;5009020;28;19926;-58
2022/10/03 09:43:00;;;;;;;;;;;;;;;;;;5008722;28;19922;-58
2022/10/03 09:45:26;;;;;;;;;;;;;;;;;;4991100;28;19944;-59
2022/10/03 09:47:52;;;;;;;;;;;;;;;;;;5007261;28;19925;-59
2022/10/03 09:50:18;;;;;;;;;;;;;;;;;;5004431;28;20322;-58
2022/10/03 09:52:45;;;;;;;;;;;;;;;;;;5008307;28;19922;-58
2022/10/03 09:55:11;;;;;;;;;;;;;;;;;;5007360;28;19952;-58
2022/10/03 09:57:39;;;;;;;;;;;;;;;;;;5008525;28;20419;-58
2022/10/03 10:00:05;;;;;;;;;;;;;;;;;;5008885;28;20020;-58
2022/10/03 10:02:32;;;;;;;;;;;;;;;;;;5007858;28;19921;-58
2022/10/03 10:04:58;;;;;;;;;;;;;;;;;;5007865;28;20323;-59
2022/10/03 10:07:24;;;;;;;;;;;;;;;;;;5008223;28;19921;-58
2022/10/03 10:09:50;;;;;;;;;;;;;;;;;;5008216;28;19924;-58
2022/10/03 10:12:16;;;;;;;;;;;;;;;;;;5006982;28;19927;-59
2022/10/03 10:14:42;;;;;;;;;;;;;;;;;;5008178;28;19925;-59
2022/10/03 10:17:08;;;;;;;;;;;;;;;;;;5003021;28;20002;-59
2022/10/03 10:19:34;;;;;;;;;;;;;;;;;;5008153;28;19925;-58
2022/10/03 10:22:00;;;;;;;;;;;;;;;;;;5008252;28;19918;-58
2022/10/03 10:24:26;;;;;;;;;;;;;;;;;;5007932;28;19926;-57
2022/10/03 10:26:52;;;;;;;;;;;;;;;;;;5008142;28;20299;-58
2022/10/03 10:29:18;;;;;;;;;;;;;;;;;;5007268;28;19917;-59
2022/10/03 10:31:45;;;;;;;;;;;;;;;;;;5006907;28;19922;-58
2022/10/03 10:34:11;;;;;;;;;;;;;;;;;;5007604;28;19917;-58
2022/10/03 10:36:37;;;;;;;;;;;;;;;;;;5007682;28;19921;-58
2022/10/03 10:39:03;;;;;;;;;;;;;;;;;;5008509;28;20385;-59
2022/10/03 10:41:29;;;;;;;;;;;;;;;;;;5007603;28;19921;-58
2022/10/03 10:43:56;;;;;;;;;;;;;;;;;;5008103;28;19963;-59
2022/10/03 10:46:22;;;;;;;;;;;;;;;;;;5006456;28;19929;-59
2022/10/03 10:48:49;;;;;;;;;;;;;;;;;;5006737;28;20268;-59
2022/10/03 10:51:15;;;;;;;;;;;;;;;;;;5007402;28;19944;-58
2022/10/03 10:53:41;;;;;;;;;;;;;;;;;;5007506;28;20298;-57
2022/10/03 10:56:07;;;;;;;;;;;;;;;;;;5007398;28;19922;-58
2022/10/03 10:58:33;;;;;;;;;;;;;;;;;;5007918;28;19925;-57
2022/10/03 11:00:59;;;;;;;;;;;;;;;;;;5010674;28;19967;-59
2022/10/03 11:03:25;;;;;;;;;;;;;;;;;;5011097;28;19929;-59
2022/10/03 11:05:51;;;;;;;;;;;;;;;;;;5011004;28;19921;-58
2022/10/03 11:08:17;;;;;;;;;;;;;;;;;;5010768;28;19933;-58
2022/10/03 11:10:43;;;;;;;;;;;;;;;;;;5008497;28;20367;-58
2022/10/03 11:13:09;;;;;;;;;;;;;;;;;;5009026;28;19926;-59
2022/10/03 11:15:35;;;;;;;;;;;;;;;;;;5008917;28;19980;-59
2022/10/03 11:18:01;;;;;;;;;;;;;;;;;;5008365;28;19925;-59
2022/10/03 11:20:27;;;;;;;;;;;;;;;;;;5008654;28;19929;-59
2022/10/03 11:22:53;;;;;;;;;;;;;;;;;;5008740;28;20543;-58
2022/10/03 11:25:19;;;;;;;;;;;;;;;;;;5008758;28;19925;-58
2022/10/03 11:27:45;;;;;;;;;;;;;;;;;;5008784;28;19956;-59
2022/10/03 11:30:11;;;;;;;;;;;;;;;;;;5007704;28;19996;-60
2022/10/03 11:32:37;;;;;;;;;;;;;;;;;;5007214;28;19943;-60
2022/10/03 11:35:05;;;;;;;;;;;;;;;;;;5009398;28;19917;-59
2022/10/03 11:37:31;;;;;;;;;;;;;;;;;;5008815;28;19929;-59
2022/10/03 11:39:57;;;;;;;;;;;;;;;;;;5008653;28;19929;-58
2022/10/03 11:42:23;;;;;;;;;;;;;;;;;;5007607;28;20271;-59
2022/10/03 11:44:49;;;;;;;;;;;;;;;;;;5006096;28;19925;-59
2022/10/03 11:47:15;;;;;;;;;;;;;;;;;;5008399;28;20019;-58
2022/10/03 11:49:41;;;;;;;;;;;;;;;;;;5010038;28;20086;-58
2022/10/03 11:52:07;;;;;;;;;;;;;;;;;;4997696;28;20472;-58
2022/10/03 11:54:33;;;;;;;;;;;;;;;;;;5010506;28;19921;-58
2022/10/03 11:57:01;;;;;;;;;;;;;;;;;;5010362;28;19921;-59
2022/10/03 11:59:27;;;;;;;;;;;;;;;;;;5010074;28;19927;-59
2022/10/03 12:01:53;;;;;;;;;;;;;;;;;;5009385;28;20012;-58
2022/10/03 12:04:19;;;;;;;;;;;;;;;;;;5010192;28;20371;-59
2022/10/03 12:09:30;;;;;;;;;;;;;;;;;;5010145;28;19921;-59
2022/10/03 12:11:56;;;;;;;;;;;;;;;;;;5010104;28;19925;-59
2022/10/03 12:14:22;;;;;;;;;;;;;;;;;;5010064;28;19932;-58
2022/10/03 12:16:48;;;;;;;;;;;;;;;;;;5009364;28;19925;-59
2022/10/03 12:19:14;;;;;;;;;;;;;;;;;;5009741;28;19921;-56
2022/10/03 12:21:41;;;;;;;;;;;;;;;;;;5010432;28;19917;-59
2022/10/03 12:24:07;;;;;;;;;;;;;;;;;;5009691;28;19921;-58
2022/10/03 12:26:33;;;;;;;;;;;;;;;;;;5010453;28;20347;-59
2022/10/03 12:28:59;;;;;;;;;;;;;;;;;;5009861;28;19918;-58
2022/10/03 12:31:25;;;;;;;;;;;;;;;;;;5007950;28;19925;-59
2022/10/03 12:33:51;;;;;;;;;;;;;;;;;;5009735;28;19921;-58
2022/10/03 12:36:18;;;;;;;;;;;;;;;;;;5009750;28;19968;-59
2022/10/03 12:38:45;;;;;;;;;;;;;;;;;;5009085;28;20032;-59
2022/10/03 12:41:11;;;;;;;;;;;;;;;;;;5008850;28;19964;-59
2022/10/03 12:43:37;;;;;;;;;;;;;;;;;;5008871;28;19925;-60
2022/10/03 12:46:04;;;;;;;;;;;;;;;;;;5008098;28;19975;-57
2022/10/03 12:48:30;;;;;;;;;;;;;;;;;;5009125;28;19927;-58
2022/10/03 12:57:06;;;;;;;;;;;;;;;;;;5009317;28;19924;-59
2022/10/03 12:59:32;;;;;;;;;;;;;;;;;;5009397;28;19992;-58
2022/10/03 13:01:58;;;;;;;;;;;;;;;;;;5008278;28;20024;-58
2022/10/03 13:04:25;;;;;;;;;;;;;;;;;;5008935;28;19921;-58
2022/10/03 13:06:51;;;;;;;;;;;;;;;;;;5009529;28;19921;-58
2022/10/03 13:09:17;;;;;;;;;;;;;;;;;;5008953;28;19968;-58
2022/10/03 13:11:43;;;;;;;;;;;;;;;;;;5009028;28;19922;-59
2022/10/03 13:14:09;;;;;;;;;;;;;;;;;;5008634;28;19922;-58
2022/10/03 13:16:37;;;;;;;;;;;;;;;;;;5007052;28;19929;-58
2022/10/03 13:19:04;;;;;;;;;;;;;;;;;;5008924;28;19921;-58
2022/10/03 13:21:33;;;;;;;;;;;;;;;;;;5008119;28;19921;-59
2022/10/03 13:23:59;;;;;;;;;;;;;;;;;;5008744;28;19921;-58
2022/10/03 13:26:26;;;;;;;;;;;;;;;;;;5008368;28;19925;-59
2022/10/03 13:28:52;;;;;;;;;;;;;;;;;;5007830;28;19968;-58
2022/10/03 13:31:18;;;;;;;;;;;;;;;;;;5007119;28;19957;-58
2022/10/03 13:33:44;;;;;;;;;;;;;;;;;;5006888;28;19956;-59
2022/10/03 13:36:11;;;;;;;;;;;;;;;;;;5008149;28;19964;-59
2022/10/03 13:38:37;;;;;;;;;;;;;;;;;;5008307;28;19928;-59
2022/10/03 13:41:11;;;;;;;;;;;;;;;;;;4999482;28;19961;-59
2022/10/03 13:46:53;;;;;;;;;;;;;;;;;;5004751;28;19916;-60
2022/10/03 13:49:19;;;;;;;;;;;;;;;;;;5000512;28;19929;-60
2022/10/03 13:51:46;;;;;;;;;;;;;;;;;;4996259;28;19928;-59
2022/10/03 13:54:12;;;;;;;;;;;;;;;;;;5004554;28;20280;-60
2022/10/03 13:56:38;;;;;;;;;;;;;;;;;;5007012;28;19926;-60
2022/10/03 13:59:04;;;;;;;;;;;;;;;;;;5007895;28;19921;-60
2022/10/03 14:01:33;;;;;;;;;;;;;;;;;;4988962;28;19921;-60
2022/10/03 14:04:00;;;;;;;;;;;;;;;;;;5007273;28;19922;-60
2022/10/03 14:06:26;;;;;;;;;;;;;;;;;;5007029;28;19961;-60
2022/10/03 14:08:52;;;;;;;;;;;;;;;;;;5007337;28;19964;-60
2022/10/03 14:11:18;;;;;;;;;;;;;;;;;;5007653;28;19921;-60
2022/10/03 14:13:44;;;;;;;;;;;;;;;;;;5007227;28;20401;-60
2022/10/03 14:16:10;;;;;;;;;;;;;;;;;;5006452;28;19921;-60
2022/10/03 14:18:36;;;;;;;;;;;;;;;;;;5007324;28;19921;-61
2022/10/03 14:21:02;;;;;;;;;;;;;;;;;;5007784;28;20425;-60
2022/10/03 14:23:28;;;;;;;;;;;;;;;;;;5007129;28;20032;-60
2022/10/03 14:25:55;;;;;;;;;;;;;;;;;;5007615;28;19943;-60
2022/10/03 14:28:25;;;;;;;;;;;;;;;;;;5007141;28;19967;-60
2022/10/03 14:30:51;;;;;;;;;;;;;;;;;;5006424;28;20099;-60
2022/10/03 14:33:17;;;;;;;;;;;;;;;;;;5006260;28;19968;-60
2022/10/03 14:35:43;;;;;;;;;;;;;;;;;;5007317;28;19917;-60
2022/10/03 14:38:09;;;;;;;;;;;;;;;;;;5006150;28;19958;-60
2022/10/03 14:40:35;;;;;;;;;;;;;;;;;;5007819;28;19922;-60
2022/10/03 14:43:01;;;;;;;;;;;;;;;;;;5007087;28;19925;-60
2022/10/03 14:45:28;;;;;;;;;;;;;;;;;;5002712;28;20017;-60
2022/10/03 14:47:55;;;;;;;;;;;;;;;;;;5006711;28;20067;-60
2022/10/03 14:50:21;;;;;;;;;;;;;;;;;;5006426;28;19928;-60
2022/10/03 14:52:47;;;;;;;;;;;;;;;;;;5007428;28;19921;-60
2022/10/03 14:55:13;;;;;;;;;;;;;;;;;;5006445;28;20484;-60
2022/10/03 15:09:34;;;;;;;;;;;;;;;;;;5006509;28;19936;-59
2022/10/03 15:12:00;;;;;;;;;;;;;;;;;;5007268;28;19925;-60
2022/10/03 15:14:26;;;;;;;;;;;;;;;;;;4989115;28;20379;-59
2022/10/03 15:16:52;;;;;;;;;;;;;;;;;;5004090;28;19983;-59
2022/10/03 15:19:18;;;;;;;;;;;;;;;;;;4990797;28;19929;-59
2022/10/03 15:21:45;;;;;;;;;;;;;;;;;;4990778;28;20000;-60
2022/10/03 15:24:13;;;;;;;;;;;;;;;;;;4992503;28;20013;-59
2022/10/03 15:26:39;;;;;;;;;;;;;;;;;;4990855;28;19922;-59
2022/10/03 15:29:05;;;;;;;;;;;;;;;;;;4994657;28;19926;-59
2022/10/03 15:31:31;;;;;;;;;;;;;;;;;;4998587;28;20320;-60
2022/10/03 15:33:58;;;;;;;;;;;;;;;;;;4999865;28;20419;-59
2022/10/03 15:36:24;;;;;;;;;;;;;;;;;;4996907;28;20012;-59
2022/10/03 15:38:50;;;;;;;;;;;;;;;;;;4997564;28;19957;-59
2022/10/03 15:41:16;;;;;;;;;;;;;;;;;;4989883;28;19967;-59
2022/10/03 15:43:42;;;;;;;;;;;;;;;;;;5006984;28;19941;-60
2022/10/03 15:46:08;;;;;;;;;;;;;;;;;;5008255;28;20429;-60
2022/10/03 15:48:34;;;;;;;;;;;;;;;;;;5006958;28;19925;-59
2022/10/03 15:51:00;;;;;;;;;;;;;;;;;;5008415;28;19929;-59
2022/10/03 15:53:26;;;;;;;;;;;;;;;;;;4991620;28;20298;-59
2022/10/03 15:55:53;;;;;;;;;;;;;;;;;;5001293;28;19933;-60
2022/10/03 15:58:19;;;;;;;;;;;;;;;;;;5006202;28;20004;-59
2022/10/03 16:00:45;;;;;;;;;;;;;;;;;;5010038;28;19922;-59
2022/10/03 16:03:11;;;;;;;;;;;;;;;;;;5009900;28;20402;-60
2022/10/03 16:05:37;;;;;;;;;;;;;;;;;;5011365;28;19921;-60
2022/10/03 16:08:03;;;;;;;;;;;;;;;;;;5008223;28;20027;-59
2022/10/03 16:10:29;;;;;;;;;;;;;;;;;;5010210;28;19921;-60
2022/10/03 16:12:55;;;;;;;;;;;;;;;;;;5012775;28;19943;-59
2022/10/03 16:15:21;;;;;;;;;;;;;;;;;;5009094;28;20100;-60
2022/10/03 16:17:48;;;;;;;;;;;;;;;;;;5008074;28;19929;-60
2022/10/03 16:20:14;;;;;;;;;;;;;;;;;;5009868;28;20338;-59
2022/10/03 16:22:40;;;;;;;;;;;;;;;;;;5010965;28;20395;-59
2022/10/03 16:25:06;;;;;;;;;;;;;;;;;;5009948;28;19968;-60
2022/10/03 16:27:33;;;;;;;;;;;;;;;;;;5011987;28;20294;-59
2022/10/03 16:29:59;;;;;;;;;;;;;;;;;;5016595;28;19928;-59
2022/10/03 16:32:25;;;;;;;;;;;;;;;;;;5012036;28;19953;-59
2022/10/03 16:34:51;;;;;;;;;;;;;;;;;;5007826;28;20429;-59
2022/10/03 16:37:17;;;;;;;;;;;;;;;;;;5007718;28;19976;-62
2022/10/03 16:39:43;;;;;;;;;;;;;;;;;;5007229;28;19929;-61
2022/10/03 16:42:10;;;;;;;;;;;;;;;;;;5007962;28;20386;-61
2022/10/03 16:44:38;;;;;;;;;;;;;;;;;;4992425;28;19971;-61
2022/10/03 16:47:04;;;;;;;;;;;;;;;;;;5006956;28;19972;-61
2022/10/03 16:52:15;;;;;;;;;;;;;;;;;;5006797;28;19921;-61
2022/10/03 16:54:42;;;;;;;;;;;;;;;;;;5006905;28;19977;-61
2022/10/03 16:57:08;;;;;;;;;;;;;;;;;;5006196;28;19922;-61
2022/10/03 16:59:34;;;;;;;;;;;;;;;;;;5007523;28;19964;-61
2022/10/03 17:02:00;;;;;;;;;;;;;;;;;;5006377;28;19921;-61
2022/10/03 17:04:26;;;;;;;;;;;;;;;;;;5006596;28;19932;-61
2022/10/03 17:06:52;;;;;;;;;;;;;;;;;;5006537;28;19933;-61
2022/10/03 17:09:18;;;;;;;;;;;;;;;;;;5006376;28;19921;-62
2022/10/03 17:11:44;;;;;;;;;;;;;;;;;;5006834;28;20003;-61
2022/10/03 17:14:10;;;;;;;;;;;;;;;;;;5008901;28;19929;-61
2022/10/03 17:16:38;;;;;;;;;;;;;;;;;;5008665;28;19976;-61